Time;durP1;ratioP1;P1;durP2;ratioP2;P2;SDS_P1;SDS_P2;PMS_P1;PMS_P2;Temp;Humidity;BMP_temperature;BMP_pressure;BME280_temperature;BME280_humidity;BME280_pressure;Samples;Min_cycle;Max_cycle;Signal;HPM_P1;HPM_P2
2021/12/31 06:00:25;;;;;;;7.17;6.47;;;11.40;97.20;;;;;;1701017;29;20179;-80
2021/12/31 06:01:16;;;;;;;8.13;6.10;;;11.40;97.20;;;;;;1701069;29;20211;-81
2021/12/31 06:02:08;;;;;;;10.40;8.53;;;11.40;97.20;;;;;;1701083;29;20227;-81
2021/12/31 06:02:59;;;;;;;8.48;7.57;;;11.40;97.20;;;;;;1701026;29;20245;-80
2021/12/31 06:03:50;;;;;;;8.03;6.90;;;11.40;97.20;;;;;;1701062;29;20206;-80
2021/12/31 06:04:41;;;;;;;10.23;7.65;;;11.40;97.20;;;;;;1703333;28;20478;-80
2021/12/31 06:05:33;;;;;;;12.47;9.60;;;11.40;97.20;;;;;;1707482;28;20207;-80
2021/12/31 06:06:24;;;;;;;16.10;11.02;;;11.40;97.20;;;;;;1708630;28;20210;-80
2021/12/31 06:07:15;;;;;;;15.37;11.20;;;11.40;97.20;;;;;;1708749;28;20216;-80
2021/12/31 06:08:06;;;;;;;14.30;9.88;;;11.40;97.20;;;;;;1708594;28;20666;-80
2021/12/31 06:08:58;;;;;;;15.33;10.43;;;11.40;97.20;;;;;;1708476;28;20821;-79
2021/12/31 06:09:49;;;;;;;10.63;8.25;;;11.40;97.20;;;;;;1708728;28;20477;-80
2021/12/31 06:10:41;;;;;;;9.40;7.30;;;11.40;97.20;;;;;;1708579;28;20215;-81
2021/12/31 06:11:32;;;;;;;9.50;6.38;;;11.40;97.20;;;;;;1708743;28;20293;-81
2021/12/31 06:12:24;;;;;;;5.03;3.97;;;11.40;97.20;;;;;;1708823;28;20269;-80
2021/12/31 06:13:15;;;;;;;6.70;4.85;;;11.40;97.20;;;;;;1708772;28;20557;-80
2021/12/31 06:14:08;;;;;;;6.00;3.70;;;11.40;97.20;;;;;;1708823;28;20224;-80
2021/12/31 06:15:02;;;;;;;3.30;2.97;;;11.40;97.20;;;;;;1708908;28;21093;-80
2021/12/31 06:15:57;;;;;;;2.60;2.35;;;11.50;97.20;;;;;;1708614;28;20241;-80
2021/12/31 06:16:48;;;;;;;2.97;2.70;;;11.50;97.20;;;;;;1708762;28;20203;-81
2021/12/31 06:17:40;;;;;;;3.50;2.90;;;11.50;97.20;;;;;;1708635;28;20206;-81
2021/12/31 06:18:31;;;;;;;4.55;3.10;;;11.50;97.20;;;;;;1708496;28;20210;-80
2021/12/31 06:19:22;;;;;;;4.30;3.33;;;11.50;97.20;;;;;;1708681;28;20198;-80
2021/12/31 06:20:13;;;;;;;6.50;3.10;;;11.50;97.20;;;;;;1708609;28;20234;-80
2021/12/31 06:21:05;;;;;;;5.63;4.10;;;11.50;97.20;;;;;;1707278;28;20209;-81
2021/12/31 06:21:55;;;;;;;5.70;4.55;;;11.40;97.20;;;;;;1702243;29;21167;-80
2021/12/31 06:22:47;;;;;;;5.20;4.80;;;11.40;97.20;;;;;;1702155;29;20689;-80
2021/12/31 06:23:38;;;;;;;6.65;5.95;;;11.40;97.20;;;;;;1702130;29;20245;-80
2021/12/31 06:24:30;;;;;;;7.87;5.83;;;11.40;97.20;;;;;;1702159;29;20210;-80
2021/12/31 06:25:21;;;;;;;5.13;4.40;;;11.30;97.20;;;;;;1702117;29;20288;-80
2021/12/31 06:26:13;;;;;;;5.80;5.30;;;11.30;97.20;;;;;;1702145;29;20217;-82
2021/12/31 06:27:04;;;;;;;5.20;4.75;;;11.30;97.20;;;;;;1702060;29;20633;-81
2021/12/31 06:27:56;;;;;;;4.63;4.33;;;11.20;97.20;;;;;;1701999;29;20662;-80
2021/12/31 06:28:47;;;;;;;5.47;4.97;;;11.20;97.20;;;;;;1701759;29;20455;-80
2021/12/31 06:29:38;;;;;;;6.00;5.40;;;11.20;97.20;;;;;;1702114;29;20233;-80
2021/12/31 06:30:30;;;;;;;4.10;3.70;;;11.20;97.20;;;;;;1701925;29;20245;-81
2021/12/31 06:31:22;;;;;;;5.70;5.20;;;11.20;97.20;;;;;;1701894;29;20299;-80
2021/12/31 06:32:14;;;;;;;5.68;5.13;;;11.20;97.20;;;;;;1702018;29;20210;-80
2021/12/31 06:33:06;;;;;;;6.32;5.82;;;11.20;97.20;;;;;;1702135;29;20218;-80
2021/12/31 06:33:56;;;;;;;6.35;5.65;;;11.20;97.20;;;;;;1702049;29;20214;-81
2021/12/31 06:34:48;;;;;;;5.03;4.53;;;11.20;97.20;;;;;;1702133;29;20209;-80
2021/12/31 06:35:39;;;;;;;5.85;4.70;;;11.20;97.20;;;;;;1702137;29;20219;-80
2021/12/31 06:36:31;;;;;;;3.80;3.50;;;11.20;97.20;;;;;;1701989;29;20217;-81
2021/12/31 06:37:22;;;;;;;6.63;3.50;;;11.20;97.20;;;;;;1702022;29;20249;-80
2021/12/31 06:38:13;;;;;;;3.47;3.13;;;11.20;97.20;;;;;;1702799;29;20198;-80
2021/12/31 06:39:04;;;;;;;3.08;2.40;;;11.20;97.20;;;;;;1701913;29;20254;-81
2021/12/31 06:40:01;;;;;;;2.10;1.90;;;11.20;97.20;;;;;;1701949;29;20207;-80
2021/12/31 06:40:51;;;;;;;3.00;2.35;;;11.20;97.20;;;;;;1702161;29;20227;-80
2021/12/31 06:41:43;;;;;;;3.47;2.07;;;11.20;97.20;;;;;;1701998;29;20206;-80
2021/12/31 06:42:34;;;;;;;2.25;2.05;;;11.20;97.20;;;;;;1702080;29;20242;-81
2021/12/31 06:43:26;;;;;;;2.78;2.15;;;11.20;97.20;;;;;;1701967;29;20209;-80
2021/12/31 06:44:17;;;;;;;2.53;1.77;;;11.20;97.20;;;;;;1702185;29;20694;-81
2021/12/31 06:45:09;;;;;;;2.13;1.93;;;11.20;97.20;;;;;;1702229;29;20607;-81
2021/12/31 06:46:00;;;;;;;2.33;1.98;;;11.20;97.20;;;;;;1702155;29;20241;-80
2021/12/31 06:46:53;;;;;;;3.13;2.83;;;11.20;97.20;;;;;;1702016;29;20203;-80
2021/12/31 06:47:44;;;;;;;2.10;1.90;;;11.20;97.20;;;;;;1701890;29;20207;-80
2021/12/31 06:48:36;;;;;;;1.80;1.70;;;11.20;97.20;;;;;;1701833;29;20207;-81
2021/12/31 06:49:26;;;;;;;2.70;2.20;;;11.20;97.20;;;;;;1701859;29;20237;-81
2021/12/31 06:50:18;;;;;;;2.30;2.10;;;11.10;97.20;;;;;;1701793;29;20203;-80
2021/12/31 06:51:10;;;;;;;3.35;3.00;;;11.20;97.20;;;;;;1701919;29;20255;-80
2021/12/31 06:52:02;;;;;;;6.97;4.75;;;11.10;97.20;;;;;;1702002;29;20203;-81
2021/12/31 06:52:53;;;;;;;7.05;5.57;;;11.10;97.20;;;;;;1702125;29;20207;-81
2021/12/31 06:53:44;;;;;;;7.63;4.70;;;11.10;97.20;;;;;;1702007;29;20278;-81
2021/12/31 06:54:36;;;;;;;4.90;4.40;;;11.10;97.20;;;;;;1706106;28;20209;-81
2021/12/31 06:55:28;;;;;;;5.45;4.95;;;11.10;97.20;;;;;;1708653;28;20202;-81
2021/12/31 06:56:19;;;;;;;6.78;5.75;;;11.10;97.20;;;;;;1708494;28;20248;-81
2021/12/31 06:57:10;;;;;;;6.37;4.87;;;11.10;97.20;;;;;;1708681;28;20209;-81
2021/12/31 06:58:01;;;;;;;4.20;3.80;;;11.10;97.20;;;;;;1708428;28;20230;-81
2021/12/31 06:58:53;;;;;;;4.10;3.47;;;11.10;97.20;;;;;;1708274;28;20194;-80
2021/12/31 06:59:44;;;;;;;3.53;3.22;;;11.10;97.20;;;;;;1708457;28;20195;-81
2021/12/31 07:00:36;;;;;;;2.90;2.40;;;11.10;97.20;;;;;;1708368;28;20234;-80
2021/12/31 07:01:26;;;;;;;2.60;2.30;;;11.10;97.20;;;;;;1708400;28;20206;-80
2021/12/31 07:02:19;;;;;;;3.20;2.67;;;11.10;97.20;;;;;;1708599;28;20198;-81
2021/12/31 07:03:12;;;;;;;2.45;2.25;;;11.10;97.20;;;;;;1708615;28;20741;-81
2021/12/31 07:04:04;;;;;;;2.80;2.10;;;11.10;97.20;;;;;;1708468;28;20689;-80
2021/12/31 07:04:55;;;;;;;3.17;2.53;;;11.10;97.20;;;;;;1708607;28;20238;-81
2021/12/31 07:05:46;;;;;;;2.60;2.40;;;11.10;97.20;;;;;;1708593;28;20207;-81
2021/12/31 07:06:38;;;;;;;2.97;2.40;;;11.10;97.20;;;;;;1708458;28;20198;-80
2021/12/31 07:07:28;;;;;;;2.47;1.90;;;11.20;97.20;;;;;;1708502;28;20207;-80
2021/12/31 07:08:20;;;;;;;2.77;2.30;;;11.20;97.20;;;;;;1708232;28;20198;-82
2021/12/31 07:09:11;;;;;;;2.63;2.42;;;11.20;97.20;;;;;;1708540;28;20245;-80
2021/12/31 07:10:03;;;;;;;2.70;2.50;;;11.20;97.20;;;;;;1708654;28;20198;-81
2021/12/31 07:10:54;;;;;;;3.60;2.80;;;11.20;97.20;;;;;;1707413;28;20219;-81
2021/12/31 07:11:46;;;;;;;2.90;2.60;;;11.20;97.20;;;;;;1708535;28;20206;-81
2021/12/31 07:12:37;;;;;;;4.07;2.78;;;11.20;97.20;;;;;;1708389;28;20662;-80
2021/12/31 07:13:29;;;;;;;2.77;2.57;;;11.20;97.20;;;;;;1708382;28;20571;-81
2021/12/31 07:14:19;;;;;;;2.67;2.47;;;11.20;97.20;;;;;;1708475;28;20237;-81
2021/12/31 07:15:11;;;;;;;2.50;2.30;;;11.20;97.20;;;;;;1708425;28;20661;-80
2021/12/31 07:16:02;;;;;;;2.58;1.90;;;11.20;97.20;;;;;;1708502;28;20246;-80
2021/12/31 07:16:54;;;;;;;2.30;2.10;;;11.20;97.20;;;;;;1707924;28;20705;-80
2021/12/31 07:17:47;;;;;;;3.10;2.10;;;11.30;97.20;;;;;;1708278;28;20214;-80
2021/12/31 07:18:39;;;;;;;2.50;2.30;;;11.30;97.20;;;;;;1708377;28;20582;-81
2021/12/31 07:19:29;;;;;;;3.78;2.40;;;11.30;97.20;;;;;;1708318;28;20479;-80
2021/12/31 07:20:22;;;;;;;2.53;2.30;;;11.20;97.20;;;;;;1708135;28;20691;-80
2021/12/31 07:21:12;;;;;;;2.63;2.42;;;11.30;97.20;;;;;;1708627;28;20213;-80
2021/12/31 07:22:04;;;;;;;2.40;2.20;;;11.20;97.20;;;;;;1708674;28;20195;-80
2021/12/31 07:22:55;;;;;;;3.05;2.50;;;11.30;97.20;;;;;;1708349;28;20248;-80
2021/12/31 07:23:47;;;;;;;2.30;2.10;;;11.30;97.20;;;;;;1708436;28;20209;-81
2021/12/31 07:24:37;;;;;;;2.00;1.80;;;11.30;97.20;;;;;;1708355;28;20206;-80
2021/12/31 07:25:29;;;;;;;2.93;2.47;;;11.30;97.20;;;;;;1708619;28;20205;-81
2021/12/31 07:26:20;;;;;;;3.00;2.03;;;11.30;97.20;;;;;;1708412;28;20211;-81
2021/12/31 07:27:11;;;;;;;2.60;2.40;;;11.20;97.20;;;;;;1708341;28;20195;-81
2021/12/31 07:28:03;;;;;;;2.50;2.30;;;11.20;97.20;;;;;;1702026;28;20203;-80
2021/12/31 07:28:54;;;;;;;2.47;2.28;;;11.20;97.20;;;;;;1701548;29;20214;-80
2021/12/31 07:29:45;;;;;;;2.78;2.47;;;11.20;97.20;;;;;;1701643;29;20619;-80
2021/12/31 07:30:38;;;;;;;3.93;3.07;;;11.20;97.20;;;;;;1701829;29;20589;-83
2021/12/31 07:31:28;;;;;;;2.65;2.45;;;11.20;97.20;;;;;;1701717;29;20203;-83
2021/12/31 07:32:20;;;;;;;2.33;2.13;;;11.20;97.20;;;;;;1701720;29;20286;-83
2021/12/31 07:33:16;;;;;;;3.25;2.95;;;11.20;97.20;;;;;;1701753;29;20231;-83
2021/12/31 07:34:08;;;;;;;2.70;2.50;;;11.20;97.20;;;;;;1701855;29;20843;-83
2021/12/31 07:34:58;;;;;;;6.40;4.43;;;11.20;97.20;;;;;;1701820;29;20581;-83
2021/12/31 07:35:51;;;;;;;3.80;2.80;;;11.20;97.20;;;;;;1701567;29;20199;-83
2021/12/31 07:36:42;;;;;;;3.28;2.45;;;11.20;97.20;;;;;;1701693;29;20215;-83
2021/12/31 07:37:34;;;;;;;4.05;2.83;;;11.20;97.20;;;;;;1701706;29;20634;-83
2021/12/31 07:38:31;;;;;;;3.05;2.72;;;11.10;97.20;;;;;;1701458;29;20241;-84
2021/12/31 07:39:24;;;;;;;3.58;3.25;;;11.10;97.20;;;;;;1701666;29;20551;-84
2021/12/31 07:40:24;;;;;;;6.22;3.63;;;11.10;97.20;;;;;;1701623;29;20216;-82
2021/12/31 07:41:16;;;;;;;3.30;3.00;;;11.10;97.20;;;;;;1701777;29;20738;-82
2021/12/31 07:42:07;;;;;;;4.47;3.60;;;11.10;97.20;;;;;;1701615;29;20214;-83
2021/12/31 07:42:58;;;;;;;3.53;3.10;;;11.10;97.20;;;;;;1701486;29;20214;-82
2021/12/31 07:43:49;;;;;;;4.35;3.83;;;11.10;97.20;;;;;;1702153;29;20447;-82
2021/12/31 07:44:41;;;;;;;3.07;2.57;;;11.10;97.20;;;;;;1701969;28;20191;-82
2021/12/31 07:45:32;;;;;;;2.92;2.72;;;11.10;97.20;;;;;;1703989;29;20251;-82
2021/12/31 07:46:23;;;;;;;3.00;2.70;;;11.10;97.20;;;;;;1701524;29;20199;-81
2021/12/31 07:47:14;;;;;;;2.90;2.70;;;11.10;97.20;;;;;;1701585;29;20454;-82
2021/12/31 07:48:06;;;;;;;3.10;2.80;;;11.10;97.20;;;;;;1701360;29;20211;-82
2021/12/31 07:48:58;;;;;;;4.70;2.63;;;11.10;97.20;;;;;;1702782;29;20703;-82
2021/12/31 07:49:50;;;;;;;10.30;3.17;;;11.10;97.20;;;;;;1704874;28;20665;-85
2021/12/31 07:50:42;;;;;;;2.72;2.53;;;11.10;97.20;;;;;;1701269;29;20230;-85
2021/12/31 07:51:33;;;;;;;2.97;2.78;;;11.10;97.20;;;;;;1701354;29;20223;-82
2021/12/31 07:52:24;;;;;;;3.40;3.10;;;11.10;97.20;;;;;;1701668;29;20575;-84
2021/12/31 07:53:16;;;;;;;3.80;3.43;;;11.10;97.20;;;;;;1701758;29;20550;-84
2021/12/31 07:54:07;;;;;;;3.55;3.25;;;11.10;97.20;;;;;;1701691;29;20475;-85
2021/12/31 07:54:59;;;;;;;4.00;3.60;;;11.10;97.20;;;;;;1701430;29;20674;-87
2021/12/31 07:55:50;;;;;;;3.58;3.28;;;11.10;97.20;;;;;;1701292;29;20459;-88
2021/12/31 07:56:42;;;;;;;4.53;3.75;;;11.00;97.20;;;;;;1701965;29;20268;-88
2021/12/31 07:57:32;;;;;;;3.85;3.55;;;11.00;97.20;;;;;;1702022;29;20230;-86
2021/12/31 07:58:24;;;;;;;3.80;3.50;;;11.00;97.20;;;;;;1701210;29;20195;-86
2021/12/31 07:59:15;;;;;;;3.72;3.42;;;11.00;97.20;;;;;;1704218;28;20198;-86
2021/12/31 08:00:08;;;;;;;5.70;3.30;;;11.00;97.20;;;;;;1708550;28;20261;-86
2021/12/31 08:00:59;;;;;;;3.33;3.03;;;11.00;97.20;;;;;;1703331;28;20227;-85
2021/12/31 08:01:51;;;;;;;3.90;3.47;;;11.00;97.20;;;;;;1701817;29;20215;-86
2021/12/31 08:02:42;;;;;;;3.58;3.22;;;11.00;97.20;;;;;;1702001;29;20207;-89
2021/12/31 08:03:35;;;;;;;3.43;3.13;;;11.00;97.20;;;;;;1701828;29;20663;-89
2021/12/31 08:04:27;;;;;;;3.40;3.10;;;11.00;97.20;;;;;;1701764;29;20699;-86
2021/12/31 08:05:19;;;;;;;3.45;3.15;;;11.00;97.20;;;;;;1701889;29;20203;-86
2021/12/31 08:06:11;;;;;;;3.40;3.10;;;11.00;97.20;;;;;;1701658;29;20238;-87
2021/12/31 08:07:01;;;;;;;3.65;3.35;;;11.00;97.20;;;;;;1701746;29;20210;-88
2021/12/31 08:07:53;;;;;;;3.77;3.47;;;11.00;97.20;;;;;;1701694;29;20203;-88
2021/12/31 08:08:45;;;;;;;4.60;4.30;;;11.00;97.20;;;;;;1701677;29;20218;-87
2021/12/31 08:09:35;;;;;;;3.85;3.45;;;11.00;97.20;;;;;;1701559;29;20215;-85
2021/12/31 08:10:27;;;;;;;2.97;2.77;;;11.00;97.20;;;;;;1701948;29;20203;-85
2021/12/31 08:11:19;;;;;;;3.47;3.00;;;11.10;97.20;;;;;;1701882;29;20239;-85
2021/12/31 08:12:09;;;;;;;4.30;3.95;;;11.10;97.20;;;;;;1701244;29;20209;-87
2021/12/31 08:13:02;;;;;;;3.50;3.20;;;11.10;97.20;;;;;;1701423;29;20278;-86
2021/12/31 08:13:53;;;;;;;4.38;3.70;;;11.10;97.20;;;;;;1701497;29;20211;-86
2021/12/31 08:14:44;;;;;;;3.53;3.13;;;11.10;97.20;;;;;;1701601;29;20206;-85
2021/12/31 08:15:36;;;;;;;3.70;3.40;;;11.10;97.20;;;;;;1701350;29;20290;-84
2021/12/31 08:16:27;;;;;;;5.57;3.42;;;11.20;97.20;;;;;;1701680;29;20195;-88
2021/12/31 08:17:18;;;;;;;4.03;3.63;;;11.20;97.20;;;;;;1701546;29;20687;-86
2021/12/31 08:18:10;;;;;;;5.32;3.80;;;11.20;97.20;;;;;;1701213;29;20203;-86
2021/12/31 08:19:02;;;;;;;4.03;3.67;;;11.20;97.20;;;;;;1701687;29;20633;-85
2021/12/31 08:19:54;;;;;;;3.50;3.20;;;11.20;97.20;;;;;;1701402;29;20211;-86
2021/12/31 08:20:45;;;;;;;3.53;3.20;;;11.30;97.20;;;;;;1701436;29;20573;-86
2021/12/31 08:21:37;;;;;;;3.90;3.33;;;11.30;97.20;;;;;;1701400;29;20210;-85
2021/12/31 08:22:28;;;;;;;3.45;3.15;;;11.30;97.20;;;;;;1700888;29;20214;-84
2021/12/31 08:23:20;;;;;;;5.83;3.60;;;11.30;97.20;;;;;;1701497;29;20209;-84
2021/12/31 08:24:10;;;;;;;3.65;3.35;;;11.40;97.20;;;;;;1701616;29;20218;-84
2021/12/31 08:25:02;;;;;;;3.93;3.53;;;11.40;97.20;;;;;;1701567;29;20644;-84
2021/12/31 08:25:53;;;;;;;3.70;3.40;;;11.40;97.20;;;;;;1701460;29;20219;-85
2021/12/31 08:26:45;;;;;;;3.50;3.20;;;11.50;97.20;;;;;;1701260;29;20194;-89
2021/12/31 08:27:35;;;;;;;3.83;3.53;;;11.50;97.20;;;;;;1701165;29;20227;-87
2021/12/31 08:28:27;;;;;;;3.87;3.50;;;11.50;97.20;;;;;;1700454;29;20197;-87
2021/12/31 08:29:18;;;;;;;3.60;3.30;;;11.60;97.20;;;;;;1700955;29;20222;-87
2021/12/31 08:30:12;;;;;;;4.30;3.70;;;11.60;97.20;;;;;;1701429;29;20238;-86
2021/12/31 08:31:02;;;;;;;4.40;4.00;;;11.60;97.20;;;;;;1701246;29;20659;-86
2021/12/31 08:31:54;;;;;;;4.83;3.13;;;11.70;97.20;;;;;;1701286;29;20722;-86
2021/12/31 08:32:45;;;;;;;4.03;3.72;;;11.70;97.20;;;;;;1701304;29;20242;-85
2021/12/31 08:33:36;;;;;;;4.00;3.67;;;11.70;97.20;;;;;;1701152;29;20210;-87
2021/12/31 08:34:27;;;;;;;4.38;3.97;;;11.80;97.20;;;;;;1701267;29;20234;-87
2021/12/31 08:35:20;;;;;;;4.00;3.60;;;11.80;97.20;;;;;;1701133;29;20199;-86
2021/12/31 08:36:11;;;;;;;3.65;3.25;;;11.80;97.20;;;;;;1701242;29;20211;-87
2021/12/31 08:37:03;;;;;;;4.03;3.60;;;11.90;97.20;;;;;;1701115;29;20242;-86
2021/12/31 08:37:54;;;;;;;4.50;4.10;;;11.90;97.20;;;;;;1701361;29;20257;-87
2021/12/31 08:38:45;;;;;;;3.90;3.60;;;12.00;97.20;;;;;;1700726;29;20218;-86
2021/12/31 08:39:36;;;;;;;4.00;3.63;;;12.00;97.20;;;;;;1701170;29;20226;-85
2021/12/31 08:40:28;;;;;;;3.40;3.07;;;12.00;97.20;;;;;;1701326;29;20662;-85
2021/12/31 08:41:19;;;;;;;4.30;3.40;;;12.10;97.20;;;;;;1701400;29;20601;-85
2021/12/31 08:42:10;;;;;;;3.73;3.43;;;12.10;97.20;;;;;;1701361;29;20593;-85
2021/12/31 08:43:02;;;;;;;3.70;3.30;;;12.20;97.20;;;;;;1701223;29;20218;-85
2021/12/31 08:43:53;;;;;;;3.53;3.17;;;12.20;97.20;;;;;;1701204;29;20218;-85
2021/12/31 08:44:44;;;;;;;3.97;3.67;;;12.30;97.20;;;;;;1701460;29;20695;-85
2021/12/31 08:45:36;;;;;;;3.40;3.10;;;12.30;97.20;;;;;;1701193;29;20217;-85
2021/12/31 08:46:27;;;;;;;3.53;3.22;;;12.30;97.20;;;;;;1701282;29;20211;-86
2021/12/31 08:47:19;;;;;;;3.57;3.27;;;12.40;97.20;;;;;;1701362;29;20207;-85
2021/12/31 08:48:10;;;;;;;4.10;3.70;;;12.40;97.20;;;;;;1701130;29;20214;-81
2021/12/31 08:49:02;;;;;;;3.57;3.27;;;12.40;97.20;;;;;;1701329;29;20685;-83
2021/12/31 08:49:53;;;;;;;3.88;3.45;;;12.40;97.20;;;;;;1701414;29;20464;-87
2021/12/31 08:50:46;;;;;;;3.95;3.60;;;12.50;97.20;;;;;;1701356;29;20223;-88
2021/12/31 08:51:37;;;;;;;4.60;4.13;;;12.50;97.20;;;;;;1701336;29;20203;-83
2021/12/31 08:52:28;;;;;;;3.30;3.00;;;12.50;97.20;;;;;;1701536;29;20203;-84
2021/12/31 08:53:20;;;;;;;3.73;3.43;;;12.60;97.20;;;;;;1701477;29;20203;-82
2021/12/31 08:54:11;;;;;;;4.03;3.60;;;12.60;97.20;;;;;;1701401;29;20238;-81
2021/12/31 08:55:02;;;;;;;4.00;3.70;;;12.70;97.20;;;;;;1701451;29;20203;-82
2021/12/31 08:55:53;;;;;;;3.50;3.20;;;12.70;97.20;;;;;;1701622;29;20203;-83
2021/12/31 08:56:45;;;;;;;3.50;3.20;;;12.70;97.20;;;;;;1701565;29;20203;-83
2021/12/31 08:57:36;;;;;;;3.30;3.00;;;12.70;97.20;;;;;;1701486;29;20211;-82
2021/12/31 08:58:28;;;;;;;3.47;3.17;;;12.70;97.20;;;;;;1701092;29;20289;-82
2021/12/31 08:59:19;;;;;;;3.13;2.85;;;12.80;97.20;;;;;;1701068;29;20454;-81
2021/12/31 09:00:12;;;;;;;3.30;2.97;;;12.80;97.20;;;;;;1701580;29;20258;-84
2021/12/31 09:01:02;;;;;;;3.45;2.92;;;12.90;97.20;;;;;;1701563;29;20230;-82
2021/12/31 09:01:54;;;;;;;3.40;3.10;;;12.90;97.20;;;;;;1701450;29;20199;-82
2021/12/31 09:02:46;;;;;;;3.30;3.00;;;12.90;97.20;;;;;;1701656;29;20760;-83
2021/12/31 09:03:38;;;;;;;3.50;3.20;;;13.00;97.20;;;;;;1701468;29;20210;-82
2021/12/31 09:04:29;;;;;;;4.07;3.47;;;13.00;97.20;;;;;;1701567;29;20207;-82
2021/12/31 09:05:22;;;;;;;3.27;2.97;;;13.00;97.20;;;;;;1701526;29;20278;-84
2021/12/31 09:06:18;;;;;;;3.92;3.53;;;13.00;97.20;;;;;;1702051;29;20695;-84
2021/12/31 09:07:09;;;;;;;4.07;3.65;;;13.10;97.20;;;;;;1701555;29;20624;-83
2021/12/31 09:08:00;;;;;;;4.00;3.70;;;13.10;97.20;;;;;;1701080;29;20208;-83
2021/12/31 09:08:52;;;;;;;3.93;3.53;;;13.10;97.20;;;;;;1701330;29;20281;-83
2021/12/31 09:09:42;;;;;;;4.22;3.80;;;13.20;97.20;;;;;;1701213;29;20210;-83
2021/12/31 09:10:34;;;;;;;3.40;3.10;;;13.20;97.20;;;;;;1701170;29;20235;-82
2021/12/31 09:11:25;;;;;;;3.70;3.40;;;13.30;97.20;;;;;;1701325;29;20246;-82
2021/12/31 09:12:17;;;;;;;4.23;3.83;;;13.30;97.20;;;;;;1701235;29;20203;-83
2021/12/31 09:13:08;;;;;;;3.38;3.13;;;13.30;97.20;;;;;;1701112;29;20237;-81
2021/12/31 09:13:59;;;;;;;5.22;3.55;;;13.40;97.20;;;;;;1700695;29;20196;-83
2021/12/31 09:14:50;;;;;;;4.30;3.60;;;13.40;97.20;;;;;;1700978;29;20660;-83
2021/12/31 09:15:42;;;;;;;3.80;3.47;;;13.40;97.20;;;;;;1700876;29;22165;-82
2021/12/31 09:16:32;;;;;;;3.80;3.40;;;13.50;97.20;;;;;;1701175;29;20245;-82
2021/12/31 09:17:24;;;;;;;4.13;3.73;;;13.50;97.20;;;;;;1701109;29;20207;-83
2021/12/31 09:18:16;;;;;;;3.30;3.00;;;13.50;97.20;;;;;;1701076;29;20245;-81
2021/12/31 09:19:06;;;;;;;4.75;3.03;;;13.60;97.20;;;;;;1701306;29;20705;-83
2021/12/31 09:19:58;;;;;;;4.00;3.40;;;13.60;97.20;;;;;;1701781;29;20566;-83
2021/12/31 09:20:52;;;;;;;3.85;3.50;;;13.70;97.20;;;;;;1701503;29;20752;-83
2021/12/31 09:21:44;;;;;;;3.65;3.35;;;13.70;97.20;;;;;;1701443;29;20211;-85
2021/12/31 09:22:36;;;;;;;3.75;3.17;;;13.70;97.20;;;;;;1701193;29;20199;-83
2021/12/31 09:23:27;;;;;;;3.55;3.25;;;13.70;97.20;;;;;;1701422;29;20686;-84
2021/12/31 09:24:19;;;;;;;3.30;3.00;;;13.70;97.20;;;;;;1701283;29;20207;-86
2021/12/31 09:25:10;;;;;;;3.20;2.90;;;13.80;97.20;;;;;;1701268;29;20211;-88
2021/12/31 09:26:02;;;;;;;3.13;2.83;;;13.80;97.20;;;;;;1701085;29;20195;-90
2021/12/31 09:26:52;;;;;;;3.70;3.40;;;13.80;97.20;;;;;;1701004;29;20977;-89
2021/12/31 09:27:44;;;;;;;4.00;3.60;;;13.90;97.20;;;;;;1701140;29;20570;-89
2021/12/31 09:28:35;;;;;;;3.22;3.03;;;13.90;97.20;;;;;;1702054;29;20207;-86
2021/12/31 09:29:27;;;;;;;3.23;2.93;;;14.00;97.20;;;;;;1701609;29;20734;-88
2021/12/31 09:30:18;;;;;;;3.97;3.45;;;14.00;97.20;;;;;;1700838;29;20223;-86
2021/12/31 09:31:10;;;;;;;4.23;3.83;;;14.10;97.20;;;;;;1701476;29;20597;-85
2021/12/31 09:32:01;;;;;;;3.25;3.05;;;14.10;97.20;;;;;;1701511;29;20262;-80
2021/12/31 09:32:53;;;;;;;3.13;2.83;;;14.20;97.20;;;;;;1701317;29;20204;-82
2021/12/31 09:33:45;;;;;;;3.33;2.80;;;14.20;97.20;;;;;;1701416;29;20443;-82
2021/12/31 09:34:35;;;;;;;3.50;3.20;;;14.30;97.20;;;;;;1701505;29;20627;-82
2021/12/31 09:35:27;;;;;;;3.30;3.00;;;14.30;97.20;;;;;;1701407;29;20568;-82
2021/12/31 09:36:18;;;;;;;3.00;2.80;;;14.40;97.20;;;;;;1701296;29;20645;-82
2021/12/31 09:37:11;;;;;;;3.47;2.97;;;14.40;97.20;;;;;;1701357;29;20200;-83
2021/12/31 09:38:07;;;;;;;3.00;2.80;;;14.40;97.20;;;;;;1701146;29;20667;-83
2021/12/31 09:38:59;;;;;;;3.00;2.70;;;14.40;97.20;;;;;;1701429;29;20207;-81
2021/12/31 09:39:50;;;;;;;3.45;2.95;;;14.40;97.20;;;;;;1701710;29;20292;-81
2021/12/31 09:40:42;;;;;;;2.70;2.50;;;14.40;97.20;;;;;;1703068;29;20303;-82
2021/12/31 09:41:32;;;;;;;2.90;2.70;;;14.40;97.20;;;;;;1702918;29;20243;-84
2021/12/31 09:42:24;;;;;;;3.37;3.07;;;14.50;97.20;;;;;;1702724;29;20203;-79
2021/12/31 09:43:15;;;;;;;2.95;2.75;;;14.50;97.20;;;;;;1702334;29;20222;-80
2021/12/31 09:44:08;;;;;;;3.20;2.90;;;14.60;97.20;;;;;;1702535;29;20214;-83
2021/12/31 09:44:58;;;;;;;2.67;2.47;;;14.60;97.20;;;;;;1702619;29;20986;-85
2021/12/31 09:45:52;;;;;;;3.00;2.73;;;14.60;97.20;;;;;;1702218;29;20608;-83
2021/12/31 09:46:43;;;;;;;3.55;2.45;;;14.70;97.20;;;;;;1702292;29;20239;-83
2021/12/31 09:47:34;;;;;;;2.92;2.70;;;14.70;97.20;;;;;;1702371;29;20198;-83
2021/12/31 09:48:25;;;;;;;3.35;3.05;;;14.70;97.20;;;;;;1702280;29;20235;-83
2021/12/31 09:49:17;;;;;;;3.17;2.87;;;14.80;97.20;;;;;;1702342;29;20211;-82
2021/12/31 09:50:08;;;;;;;2.97;2.42;;;14.80;97.20;;;;;;1702453;29;20482;-79
2021/12/31 09:51:02;;;;;;;2.92;2.72;;;14.90;97.20;;;;;;1702471;29;20235;-80
2021/12/31 09:51:53;;;;;;;2.95;2.65;;;14.90;97.20;;;;;;1702604;29;20210;-78
2021/12/31 09:52:46;;;;;;;3.30;2.50;;;15.00;97.20;;;;;;1703170;29;20206;-84
2021/12/31 09:53:37;;;;;;;2.28;2.10;;;15.00;97.20;;;;;;1703674;29;20599;-81
2021/12/31 09:54:28;;;;;;;3.20;3.00;;;15.10;97.20;;;;;;1703484;29;20654;-81
2021/12/31 09:55:34;;;;;;;3.20;2.55;;;15.10;97.20;;;;;;1702850;29;20235;-84
2021/12/31 09:56:26;;;;;;;3.05;2.65;;;15.10;97.20;;;;;;1704278;29;20231;-83
2021/12/31 09:57:18;;;;;;;2.60;2.40;;;15.20;97.20;;;;;;1703310;29;20211;-80
2021/12/31 09:58:11;;;;;;;3.47;2.95;;;15.20;97.20;;;;;;1702906;29;20199;-78
2021/12/31 09:59:01;;;;;;;3.60;2.88;;;15.30;97.20;;;;;;1703095;29;20719;-81
2021/12/31 09:59:54;;;;;;;3.10;2.67;;;15.40;97.20;;;;;;1703428;29;20207;-83
2021/12/31 10:00:47;;;;;;;5.18;2.95;;;15.50;97.20;;;;;;1703280;29;20290;-80
2021/12/31 10:01:47;;;;;;;4.45;2.70;;;15.50;97.20;;;;;;1704445;29;20203;-78
2021/12/31 10:02:37;;;;;;;3.60;2.97;;;15.60;97.20;;;;;;1702268;29;20241;-79
2021/12/31 10:03:31;;;;;;;6.97;3.40;;;15.60;97.20;;;;;;1701882;29;20195;-78
2021/12/31 10:04:22;;;;;;;3.15;2.85;;;15.70;97.20;;;;;;1701932;29;20207;-78
2021/12/31 10:06:11;;;;;;;3.70;3.40;;;15.80;97.20;;;;;;1754299;27;20543;-78
2021/12/31 10:07:07;;;;;;;4.55;4.15;;;15.80;97.20;;;;;;1754167;28;20202;-79
2021/12/31 10:07:58;;;;;;;3.70;3.40;;;15.80;97.20;;;;;;1754365;28;20202;-78
2021/12/31 10:08:49;;;;;;;4.63;3.55;;;15.90;97.20;;;;;;1754174;28;20684;-80
2021/12/31 10:09:41;;;;;;;3.30;3.00;;;15.90;97.20;;;;;;1754515;28;20641;-78
2021/12/31 10:10:32;;;;;;;3.55;3.25;;;16.00;97.20;;;;;;1754396;28;20229;-80
2021/12/31 10:11:25;;;;;;;3.60;3.30;;;16.10;97.20;;;;;;1753513;28;20240;-80
2021/12/31 10:12:15;;;;;;;3.90;3.60;;;16.10;97.20;;;;;;1754199;28;20456;-80
2021/12/31 10:13:08;;;;;;;3.80;3.50;;;16.20;97.20;;;;;;1754461;28;20202;-80
2021/12/31 10:14:02;;;;;;;3.83;3.42;;;16.30;97.20;;;;;;1748421;28;20198;-79
2021/12/31 10:14:57;;;;;;;3.38;3.08;;;16.40;97.20;;;;;;1747239;28;20202;-80
2021/12/31 10:15:51;;;;;;;3.47;3.17;;;16.50;97.20;;;;;;1747415;28;20244;-80
2021/12/31 10:16:42;;;;;;;3.65;3.35;;;16.60;97.20;;;;;;1747416;28;20213;-80
2021/12/31 10:17:38;;;;;;;3.57;3.27;;;16.70;97.20;;;;;;1747469;28;20277;-80
2021/12/31 10:18:31;;;;;;;3.40;3.10;;;16.90;97.20;;;;;;1747091;28;20217;-78
2021/12/31 10:19:23;;;;;;;3.92;3.63;;;17.00;97.20;;;;;;1747309;28;20669;-80
2021/12/31 10:20:15;;;;;;;4.13;3.50;;;17.10;97.20;;;;;;1747259;28;20235;-81
2021/12/31 10:21:06;;;;;;;4.10;3.70;;;17.20;97.20;;;;;;1747390;28;20202;-80
2021/12/31 10:21:59;;;;;;;4.07;3.78;;;17.20;97.20;;;;;;1747415;28;20202;-81
2021/12/31 10:22:51;;;;;;;3.60;3.30;;;17.30;97.20;;;;;;1747220;28;20198;-80
2021/12/31 10:23:43;;;;;;;3.70;3.40;;;17.30;97.20;;;;;;1747253;28;20206;-80
2021/12/31 10:24:35;;;;;;;3.60;3.30;;;17.40;97.20;;;;;;1747191;28;20313;-81
2021/12/31 10:25:30;;;;;;;3.88;3.58;;;17.50;97.20;;;;;;1747191;28;20546;-81
2021/12/31 10:26:21;;;;;;;4.38;3.97;;;17.50;97.20;;;;;;1747251;28;20203;-80
2021/12/31 10:27:17;;;;;;;4.30;4.00;;;17.60;97.20;;;;;;1747114;28;20226;-80
2021/12/31 10:28:11;;;;;;;3.80;3.50;;;17.70;97.20;;;;;;1747236;28;20646;-80
2021/12/31 10:29:07;;;;;;;3.95;3.65;;;17.80;97.20;;;;;;1747257;28;20836;-81
2021/12/31 10:30:00;;;;;;;4.20;3.90;;;17.90;97.20;;;;;;1747279;28;20818;-81